createdAt,value
2022-08-13T00:00:51.823Z,0.20
2022-08-13T00:04:00.907Z,0.17
2022-08-13T00:06:22.003Z,0.20
2022-08-13T00:08:57.805Z,0.20
2022-08-13T00:12:00.695Z,0.20
2022-08-13T00:14:35.843Z,0.20
2022-08-13T00:17:09.314Z,0.20
2022-08-13T00:19:40.754Z,0.10
2022-08-13T00:22:28.396Z,0.20
2022-08-13T00:24:59.934Z,0.20
2022-08-13T00:27:41.512Z,0.20
2022-08-13T00:30:27.006Z,0.10
2022-08-13T00:33:01.975Z,0.17
2022-08-13T00:35:40.293Z,0.20
2022-08-13T00:38:13.987Z,0.20
2022-08-13T00:40:56.507Z,0.20
2022-08-13T00:43:27.228Z,0.20
2022-08-13T00:45:57.665Z,0.17
2022-08-13T00:48:46.019Z,0.20
2022-08-13T00:51:57.133Z,0.10
2022-08-13T00:54:18.575Z,0.20
2022-08-13T00:56:49.849Z,0.10
2022-08-13T00:59:18.534Z,0.20
2022-08-13T01:01:50.138Z,0.20
2022-08-13T01:04:26.693Z,0.20
2022-08-13T01:06:57.815Z,0.17
2022-08-13T01:10:18.465Z,0.20
2022-08-13T01:12:25.437Z,0.20
2022-08-13T01:14:56.574Z,0.17
2022-08-13T01:17:43.860Z,0.20
2022-08-13T01:20:33.281Z,0.20
2022-08-13T01:23:08.988Z,0.20
2022-08-13T01:25:53.049Z,0.20
2022-08-13T01:28:24.821Z,0.20
2022-08-13T01:30:54.404Z,0.13
2022-08-13T01:33:24.209Z,0.20
2022-08-13T01:35:55.224Z,0.20
2022-08-13T01:38:29.234Z,0.17
2022-08-13T01:40:59.776Z,0.10
2022-08-13T01:45:59.474Z,0.17
2022-08-13T01:48:48.036Z,0.20
2022-08-13T01:51:32.624Z,0.10
2022-08-13T01:54:30.462Z,0.20
2022-08-13T01:57:02.722Z,0.20
2022-08-13T02:00:02.171Z,0.20
2022-08-13T02:02:34.933Z,0.20
2022-08-13T02:05:11.397Z,0.13
2022-08-13T02:08:01.883Z,0.10
2022-08-13T02:10:32.889Z,0.13
2022-08-13T02:13:01.528Z,0.20
2022-08-13T02:15:41.169Z,0.10
2022-08-13T02:18:19.631Z,0.20
2022-08-13T02:20:49.223Z,0.20
2022-08-13T02:24:00.595Z,0.20
2022-08-13T02:26:15.388Z,0.20
2022-08-13T02:28:49.715Z,0.10
2022-08-13T02:31:26.447Z,0.10
2022-08-13T02:34:14.124Z,0.20
2022-08-13T02:37:20.675Z,0.20
2022-08-13T02:39:43.202Z,0.20
2022-08-13T02:42:16.547Z,0.20
2022-08-13T02:44:49.244Z,0.10
2022-08-13T02:47:33.965Z,0.20
2022-08-13T02:50:10.891Z,0.20
2022-08-13T02:52:50.400Z,0.20
2022-08-13T02:55:34.350Z,0.20
2022-08-13T02:58:05.955Z,0.20
2022-08-13T03:00:34.992Z,0.20
2022-08-13T03:03:10.588Z,0.20
2022-08-13T03:05:51.360Z,0.20
2022-08-13T03:08:39.374Z,0.20
2022-08-13T03:11:10.310Z,0.20
2022-08-13T03:13:44.685Z,0.30
2022-08-13T03:16:19.316Z,0.20
2022-08-13T03:18:53.098Z,0.20
2022-08-13T03:21:42.135Z,0.20
2022-08-13T03:24:22.200Z,0.20
2022-08-13T03:26:58.175Z,0.23
2022-08-13T03:30:02.706Z,0.20
2022-08-13T03:32:30.675Z,0.20
2022-08-13T03:34:59.335Z,0.20
2022-08-13T03:37:38.779Z,0.20
2022-08-13T03:40:08.445Z,0.30
2022-08-13T03:42:52.230Z,0.20
2022-08-13T03:45:27.945Z,0.20
2022-08-13T03:47:57.417Z,0.20
2022-08-13T03:50:26.110Z,0.20
2022-08-13T03:52:55.491Z,0.17
2022-08-13T03:55:24.258Z,0.20
2022-08-13T03:58:01.895Z,0.20
2022-08-13T04:00:35.586Z,0.20
2022-08-13T04:03:15.786Z,0.20
2022-08-13T04:05:56.745Z,0.10
2022-08-13T04:08:28.094Z,0.30
2022-08-13T04:10:56.717Z,0.20
2022-08-13T04:14:05.282Z,0.30
2022-08-13T04:16:19.758Z,0.20
2022-08-13T04:18:50.285Z,0.20
2022-08-13T04:21:22.819Z,0.20
2022-08-13T04:23:55.617Z,0.30
2022-08-13T04:26:27.438Z,0.20
2022-08-13T04:29:03.109Z,0.20
2022-08-13T04:31:48.361Z,0.20
2022-08-13T04:34:31.952Z,0.20
2022-08-13T04:37:21.490Z,0.20
2022-08-13T04:40:06.605Z,0.10
2022-08-13T04:42:54.758Z,0.20
2022-08-13T04:45:24.988Z,0.20
2022-08-13T04:47:59.716Z,0.20
2022-08-13T04:50:30.683Z,0.20
2022-08-13T04:52:59.456Z,0.20
2022-08-13T04:55:57.327Z,0.20
2022-08-13T04:58:17.149Z,0.20
2022-08-13T05:00:46.857Z,0.20
2022-08-13T05:03:25.085Z,0.20
2022-08-13T05:06:01.446Z,0.20
2022-08-13T05:08:33.715Z,0.20
2022-08-13T05:11:03.947Z,0.20
2022-08-13T05:13:45.145Z,0.10
2022-08-13T05:16:15.236Z,0.20
2022-08-13T05:18:55.874Z,0.20
2022-08-13T05:21:33.720Z,0.20
2022-08-13T05:26:21.494Z,0.20
2022-08-13T05:27:09.490Z,0.10
2022-08-13T05:30:03.573Z,0.20
2022-08-13T05:32:36.346Z,0.20
2022-08-13T05:35:14.454Z,0.20
2022-08-13T05:38:13.136Z,0.20
2022-08-13T05:40:36.883Z,0.13
2022-08-13T05:43:11.484Z,0.17
2022-08-13T05:45:52.847Z,0.20
2022-08-13T05:48:30.576Z,0.20
2022-08-13T05:51:02.276Z,0.17
2022-08-13T05:53:40.997Z,0.20
2022-08-13T05:56:21.404Z,0.20
2022-08-13T05:58:50.329Z,0.13
2022-08-13T06:01:37.371Z,0.10
2022-08-13T06:04:25.285Z,0.20
2022-08-13T06:07:01.434Z,0.10
2022-08-13T06:09:32.749Z,0.10
2022-08-13T06:12:21.340Z,0.10
2022-08-13T06:14:53.945Z,0.10
2022-08-13T06:17:29.812Z,0.20
2022-08-13T06:20:06.487Z,0.20
2022-08-13T06:22:42.298Z,0.17
2022-08-13T06:25:12.536Z,0.17
2022-08-13T06:27:56.391Z,0.10
2022-08-13T06:30:29.632Z,0.20
2022-08-13T06:34:08.045Z,0.20
2022-08-13T06:35:56.745Z,0.10
2022-08-13T06:38:33.714Z,0.20
2022-08-13T06:41:04.026Z,0.10
2022-08-13T06:43:47.053Z,0.20
2022-08-13T06:46:27.025Z,0.10
2022-08-13T06:49:06.387Z,0.10
2022-08-13T06:51:37.833Z,0.10
2022-08-13T06:54:25.159Z,0.10
2022-08-13T06:57:12.563Z,0.10
2022-08-13T07:00:05.258Z,0.10
2022-08-13T07:02:38.190Z,0.10
2022-08-13T07:05:08.533Z,0.13
2022-08-13T07:07:45.736Z,0.10
2022-08-13T07:10:16.637Z,0.10
2022-08-13T07:12:46.104Z,0.10
2022-08-13T07:15:25.343Z,0.10
2022-08-13T07:18:06.657Z,0.10
2022-08-13T07:20:35.470Z,0.10
2022-08-13T07:24:37.495Z,0.10
2022-08-13T07:25:59.761Z,0.10
2022-08-13T07:28:46.817Z,0.10
2022-08-13T07:31:22.987Z,0.10
2022-08-13T07:33:58.283Z,0.10
2022-08-13T07:36:31.822Z,0.10
2022-08-13T07:39:07.488Z,0.10
2022-08-13T07:42:02.679Z,0.10
2022-08-13T07:44:38.763Z,0.10
2022-08-13T07:47:17.239Z,0.10
2022-08-13T07:49:52.915Z,0.10
2022-08-13T07:52:21.433Z,0.10
2022-08-13T07:54:50.674Z,0.10
2022-08-13T07:57:27.612Z,0.10
2022-08-13T08:00:17.908Z,0.10
2022-08-13T08:02:56.447Z,0.10
2022-08-13T08:05:30.686Z,0.10
2022-08-13T08:08:08.298Z,0.10
2022-08-13T08:10:41.606Z,0.10
2022-08-13T08:13:13.073Z,0.10
2022-08-13T08:16:00.556Z,0.10
2022-08-13T08:19:01.075Z,0.10
2022-08-13T08:21:48.036Z,0.10
2022-08-13T08:24:29.707Z,0.10
2022-08-13T08:27:00.423Z,0.10
2022-08-13T08:29:33.815Z,0.10
2022-08-13T08:32:09.378Z,0.10
2022-08-13T08:34:39.603Z,0.10
2022-08-13T08:37:11.593Z,0.10
2022-08-13T08:39:58.400Z,0.10
2022-08-13T08:43:04.063Z,0.10
2022-08-13T08:46:03.025Z,0.05
2022-08-13T08:48:27.199Z,0.00
2022-08-13T08:51:01.779Z,0.10
2022-08-13T08:54:12.390Z,0.10
2022-08-13T08:56:26.123Z,0.10
2022-08-13T08:58:56.925Z,0.10
2022-08-13T09:01:29.226Z,0.05
2022-08-13T09:04:08.384Z,0.00
2022-08-13T09:06:56.495Z,0.10
2022-08-13T09:09:27.013Z,0.05
2022-08-13T09:11:58.193Z,0.10
2022-08-13T09:14:29.053Z,0.10
2022-08-13T09:17:05.128Z,0.00
2022-08-13T09:19:47.291Z,0.10
2022-08-13T09:22:23.996Z,0.00
2022-08-13T09:25:00.034Z,0.10
2022-08-13T09:28:01.771Z,0.10
2022-08-13T09:30:23.761Z,0.10
2022-08-13T09:32:57.902Z,0.00
2022-08-13T09:35:28.815Z,0.10
2022-08-13T09:38:10.500Z,0.00
2022-08-13T09:40:52.194Z,0.10
2022-08-13T09:43:44.029Z,0.10
2022-08-13T09:46:22.623Z,0.10
2022-08-13T09:48:59.668Z,0.10
2022-08-13T09:51:54.671Z,0.10
2022-08-13T09:54:27.700Z,0.00
2022-08-13T09:57:00.576Z,0.05
2022-08-13T09:59:33.055Z,0.00
2022-08-13T10:02:10.730Z,0.00
2022-08-13T10:04:47.190Z,0.00
2022-08-13T10:07:17.207Z,0.00
2022-08-13T10:10:22.014Z,0.10
2022-08-13T10:12:39.796Z,0.00
2022-08-13T10:15:23.077Z,0.00
2022-08-13T10:18:00.896Z,0.00
2022-08-13T10:20:35.106Z,0.10
2022-08-13T10:23:05.023Z,0.00
2022-08-13T10:25:46.709Z,0.00
2022-08-13T10:28:30.456Z,0.00
2022-08-13T10:31:46.817Z,0.10
2022-08-13T10:33:54.800Z,0.00
2022-08-13T10:36:34.315Z,0.10
2022-08-13T10:39:08.884Z,0.00
2022-08-13T10:42:00.638Z,0.00
2022-08-13T10:44:31.985Z,0.00
2022-08-13T10:47:01.172Z,0.00
2022-08-13T10:49:33.491Z,0.00
2022-08-13T10:52:05.150Z,0.10
2022-08-13T10:54:36.536Z,0.10
2022-08-13T10:57:06.032Z,0.00
2022-08-13T10:59:36.741Z,0.10
2022-08-13T11:02:08.091Z,0.00
2022-08-13T11:04:51.024Z,0.10
2022-08-13T11:07:22.679Z,0.10
2022-08-13T11:09:51.652Z,0.08
2022-08-13T11:12:23.750Z,0.00
2022-08-13T11:14:54.788Z,0.00
2022-08-13T11:17:35.052Z,0.10
2022-08-13T11:20:19.833Z,0.10
2022-08-13T11:22:55.580Z,0.00
2022-08-13T11:25:56.908Z,0.00
2022-08-13T11:28:16.651Z,0.00
2022-08-13T11:30:49.977Z,0.00
2022-08-13T11:33:20.272Z,0.00
2022-08-13T11:36:09.735Z,0.00
2022-08-13T11:38:43.511Z,0.00
2022-08-13T11:41:18.936Z,0.00
2022-08-13T11:43:51.755Z,0.10
2022-08-13T11:46:27.113Z,0.10
2022-08-13T11:49:19.565Z,0.10
2022-08-13T11:51:48.624Z,0.00
2022-08-13T11:54:32.465Z,0.10
2022-08-13T11:57:02.857Z,0.10
2022-08-13T11:59:41.296Z,0.00
2022-08-13T12:02:16.188Z,0.00
2022-08-13T12:04:49.535Z,0.00
2022-08-13T12:07:24.175Z,0.10
2022-08-13T12:09:57.965Z,0.05
2022-08-13T12:12:28.999Z,0.10
2022-08-13T12:14:59.846Z,0.00
2022-08-13T12:17:51.837Z,0.00
2022-08-13T12:20:21.199Z,0.00
2022-08-13T12:22:52.547Z,0.00
2022-08-13T12:26:01.677Z,0.00
2022-08-13T12:28:21.946Z,0.08
2022-08-13T12:30:52.492Z,0.00
2022-08-13T12:33:22.042Z,0.00
2022-08-13T12:35:57.043Z,0.00
2022-08-13T12:38:29.945Z,0.00
2022-08-13T12:41:09.966Z,0.10
2022-08-13T12:44:09.199Z,0.10
2022-08-13T12:46:35.299Z,0.10
2022-08-13T12:49:11.690Z,0.00
2022-08-13T12:51:55.032Z,0.10
2022-08-13T12:54:39.636Z,0.10
2022-08-13T12:57:27.409Z,0.00
2022-08-13T13:00:09.959Z,0.10
2022-08-13T13:02:47.609Z,0.00
2022-08-13T13:05:18.966Z,0.10
2022-08-13T13:08:04.946Z,0.00
2022-08-13T13:10:38.792Z,0.00
2022-08-13T13:13:24.779Z,0.10
2022-08-13T13:16:28.140Z,0.00
2022-08-13T13:18:55.291Z,0.10
2022-08-13T13:21:34.773Z,0.10
2022-08-13T13:24:16.851Z,0.08
2022-08-13T13:26:51.379Z,0.00
2022-08-13T13:29:27.848Z,0.10
2022-08-13T13:32:45.183Z,0.10
2022-08-13T13:34:45.548Z,0.10
2022-08-13T13:37:14.587Z,0.00
2022-08-13T13:39:48.318Z,0.10
2022-08-13T13:42:29.580Z,0.00
2022-08-13T13:44:59.792Z,0.00
2022-08-13T13:47:33.346Z,0.00
2022-08-13T13:50:06.244Z,0.00
2022-08-13T13:53:07.886Z,0.10
2022-08-13T13:55:34.198Z,0.10
2022-08-13T13:58:50.729Z,0.08
2022-08-13T14:01:01.278Z,0.00
2022-08-13T14:03:32.886Z,0.00
2022-08-13T14:06:07.056Z,0.10
2022-08-13T14:08:37.345Z,0.00
2022-08-13T14:11:12.440Z,0.10
2022-08-13T14:13:42.010Z,0.10
2022-08-13T14:16:14.063Z,0.00
2022-08-13T14:18:44.088Z,0.00
2022-08-13T14:21:15.887Z,0.10
2022-08-13T14:23:45.410Z,0.00
2022-08-13T14:26:22.150Z,0.00
2022-08-13T14:28:51.978Z,0.00
2022-08-13T14:31:24.230Z,0.00
2022-08-13T14:33:58.524Z,0.00
2022-08-13T14:36:30.903Z,0.00
2022-08-13T14:39:02.698Z,0.00
2022-08-13T14:41:43.530Z,0.00
2022-08-13T14:44:51.679Z,0.00
2022-08-13T14:47:08.472Z,0.00
2022-08-13T14:49:55.074Z,0.00
2022-08-13T14:52:38.874Z,0.00
2022-08-13T14:55:21.498Z,0.00
2022-08-13T14:58:00.568Z,0.00
2022-08-13T15:00:42.824Z,0.00
2022-08-13T15:03:16.972Z,0.00
2022-08-13T15:05:53.085Z,0.00
2022-08-13T15:08:30.435Z,0.00
2022-08-13T15:11:06.264Z,0.00
2022-08-13T15:13:54.018Z,0.00
2022-08-13T15:16:30.774Z,0.00
2022-08-13T15:19:10.322Z,0.00
2022-08-13T15:21:49.251Z,0.00
2022-08-13T15:24:40.844Z,0.00
2022-08-13T15:27:34.617Z,0.00
2022-08-13T15:30:09.809Z,0.00
2022-08-13T15:32:52.807Z,0.00
2022-08-13T15:35:32.177Z,0.00
2022-08-13T15:38:11.497Z,0.00
2022-08-13T15:40:41.723Z,0.00
2022-08-13T15:43:35.871Z,0.00
2022-08-13T15:46:06.166Z,0.00
2022-08-13T15:48:35.913Z,0.00
2022-08-13T15:51:16.026Z,0.00
2022-08-13T15:53:45.611Z,0.00
2022-08-13T15:56:21.586Z,0.00
2022-08-13T15:58:50.335Z,0.00
2022-08-13T16:01:22.479Z,0.00
2022-08-13T16:03:57.146Z,0.00
2022-08-13T16:06:33.476Z,0.00
2022-08-13T16:09:05.561Z,0.03
2022-08-13T16:11:44.875Z,0.00
2022-08-13T16:14:18.551Z,0.00
2022-08-13T16:16:53.781Z,0.00
2022-08-13T16:19:51.984Z,0.00
2022-08-13T16:22:19.820Z,0.10
2022-08-13T16:24:51.853Z,0.10
2022-08-13T16:27:24.685Z,0.10
2022-08-13T16:30:02.592Z,0.00
2022-08-13T16:32:42.707Z,0.10
2022-08-13T16:35:16.190Z,0.10
2022-08-13T16:37:59.738Z,0.10
2022-08-13T16:40:35.877Z,0.00
2022-08-13T16:43:10.470Z,0.10
2022-08-13T16:45:42.091Z,0.00
2022-08-13T16:48:13.088Z,0.00
2022-08-13T16:50:47.808Z,0.10
2022-08-13T16:53:24.409Z,0.00
2022-08-13T16:56:11.394Z,0.10
2022-08-13T16:58:45.415Z,0.10
2022-08-13T17:01:21.351Z,0.10
2022-08-13T17:05:09.784Z,0.10
2022-08-13T17:07:17.673Z,0.10
2022-08-13T17:09:47.894Z,0.00
2022-08-13T17:12:20.542Z,0.10
2022-08-13T17:14:49.314Z,0.10
2022-08-13T17:17:19.254Z,0.10
2022-08-13T17:19:59.802Z,0.10
2022-08-13T17:22:41.263Z,0.00
2022-08-13T17:25:17.753Z,0.10
2022-08-13T17:27:52.548Z,0.10
2022-08-13T17:30:22.589Z,0.10
2022-08-13T17:32:53.657Z,0.10
2022-08-13T17:35:24.229Z,0.10
2022-08-13T17:37:55.735Z,0.10
2022-08-13T17:40:34.196Z,0.00
2022-08-13T17:44:01.652Z,0.10
2022-08-13T17:45:59.274Z,0.10
2022-08-13T17:48:39.156Z,0.10
2022-08-13T17:51:24.482Z,0.10
2022-08-13T17:53:59.532Z,0.10
2022-08-13T17:56:30.362Z,0.10
2022-08-13T17:58:59.257Z,0.10
2022-08-13T18:01:28.262Z,0.10
2022-08-13T18:04:01.870Z,0.10
2022-08-13T18:06:32.666Z,0.10
2022-08-13T18:09:04.649Z,0.10
2022-08-13T18:11:41.413Z,0.10
2022-08-13T18:14:21.056Z,0.00
2022-08-13T18:17:05.802Z,0.10
2022-08-13T18:19:40.083Z,0.10
2022-08-13T18:22:10.726Z,0.10
2022-08-13T18:24:39.166Z,0.10
2022-08-13T18:27:23.115Z,0.10
2022-08-13T18:29:59.550Z,0.10
2022-08-13T18:32:32.405Z,0.10
2022-08-13T18:35:01.764Z,0.10
2022-08-13T18:37:38.010Z,0.10
2022-08-13T18:40:14.584Z,0.10
2022-08-13T18:42:45.902Z,0.10
2022-08-13T18:45:57.755Z,0.10
2022-08-13T18:48:13.263Z,0.10
2022-08-13T18:50:52.178Z,0.10
2022-08-13T18:53:33.351Z,0.10
2022-08-13T18:56:13.997Z,0.10
2022-08-13T18:58:46.238Z,0.10
2022-08-13T19:01:15.883Z,0.10
2022-08-13T19:04:01.007Z,0.10
2022-08-13T19:06:34.587Z,0.10
2022-08-13T19:09:07.140Z,0.10
2022-08-13T19:11:40.940Z,0.10
2022-08-13T19:14:19.951Z,0.10
2022-08-13T19:16:57.220Z,0.10
2022-08-13T19:19:55.036Z,0.10
2022-08-13T19:22:19.547Z,0.10
2022-08-13T19:24:51.788Z,0.10
2022-08-13T19:27:34.797Z,0.10
2022-08-13T19:30:14.244Z,0.10
2022-08-13T19:32:44.521Z,0.10
2022-08-13T19:35:21.260Z,0.10
2022-08-13T19:37:57.078Z,0.10
2022-08-13T19:40:34.410Z,0.10
2022-08-13T19:43:08.766Z,0.10
2022-08-13T19:46:03.108Z,0.10
2022-08-13T19:48:39.264Z,0.10
2022-08-13T19:51:24.653Z,0.10
2022-08-13T19:53:57.601Z,0.20
2022-08-13T19:56:35.366Z,0.10
2022-08-13T19:59:06.506Z,0.20
2022-08-13T20:01:39.806Z,0.10
2022-08-13T20:04:14.653Z,0.10
2022-08-13T20:06:48.946Z,0.10
2022-08-13T20:09:19.363Z,0.10
2022-08-13T20:11:50.114Z,0.10
2022-08-13T20:14:20.147Z,0.10
2022-08-13T20:16:51.768Z,0.10
2022-08-13T20:20:00.147Z,0.10
2022-08-13T20:22:10.737Z,0.20
2022-08-13T20:25:44.663Z,0.10
2022-08-13T20:27:49.021Z,0.10
2022-08-13T20:30:35.158Z,0.10
2022-08-13T20:33:07.278Z,0.10
2022-08-13T20:35:36.664Z,0.10
2022-08-13T20:38:05.852Z,0.10
2022-08-13T20:40:35.413Z,0.10
2022-08-13T20:43:12.363Z,0.10
2022-08-13T20:45:53.282Z,0.10
2022-08-13T20:48:30.393Z,0.10
2022-08-13T20:51:02.827Z,0.10
2022-08-13T20:53:33.422Z,0.10
2022-08-13T20:56:05.916Z,0.10
2022-08-13T21:00:46.368Z,0.10
2022-08-13T21:01:30.622Z,0.10
2022-08-13T21:04:02.237Z,0.10
2022-08-13T21:06:31.351Z,0.10
2022-08-13T21:09:01.198Z,0.10
2022-08-13T21:11:40.781Z,0.10
2022-08-13T21:14:15.146Z,0.17
2022-08-13T21:16:45.940Z,0.10
2022-08-13T21:19:39.126Z,0.20
2022-08-13T21:22:06.192Z,0.10
2022-08-13T21:24:36.576Z,0.10
2022-08-13T21:27:24.405Z,0.10
2022-08-13T21:30:04.145Z,0.10
2022-08-13T21:32:34.129Z,0.10
2022-08-13T21:35:04.658Z,0.20
2022-08-13T21:37:35.327Z,0.10
2022-08-13T21:40:04.624Z,0.10
2022-08-13T21:42:38.609Z,0.10
2022-08-13T21:45:14.240Z,0.20
2022-08-13T21:47:47.401Z,0.20
2022-08-13T21:50:20.536Z,0.10
2022-08-13T21:52:59.827Z,0.10
2022-08-13T21:55:32.857Z,0.10
2022-08-13T21:58:02.074Z,0.10
2022-08-13T22:00:32.640Z,0.10
2022-08-13T22:03:06.052Z,0.10
2022-08-13T22:05:59.632Z,0.20
2022-08-13T22:08:32.202Z,0.10
2022-08-13T22:11:00.814Z,0.10
2022-08-13T22:13:29.491Z,0.10
2022-08-13T22:16:00.787Z,0.17
2022-08-13T22:18:33.268Z,0.10
2022-08-13T22:21:05.615Z,0.10
2022-08-13T22:23:34.358Z,0.10
2022-08-13T22:26:03.037Z,0.10
2022-08-13T22:28:50.586Z,0.10
2022-08-13T22:31:20.464Z,0.10
2022-08-13T22:34:03.905Z,0.10
2022-08-13T22:36:36.664Z,0.10
2022-08-13T22:39:08.366Z,0.10
2022-08-13T22:41:40.827Z,0.20
2022-08-13T22:44:11.711Z,0.10
2022-08-13T22:46:43.280Z,0.10
2022-08-13T22:49:12.595Z,0.10
2022-08-13T22:51:47.389Z,0.10
2022-08-13T22:54:20.463Z,0.10
2022-08-13T22:56:48.985Z,0.20
2022-08-13T22:59:18.077Z,0.10
2022-08-13T23:01:50.235Z,0.20
2022-08-13T23:04:22.920Z,0.10
2022-08-13T23:06:54.068Z,0.20
2022-08-13T23:09:28.023Z,0.20
2022-08-13T23:12:01.098Z,0.20
2022-08-13T23:14:30.808Z,0.10
2022-08-13T23:16:59.656Z,0.20
2022-08-13T23:19:29.302Z,0.20
2022-08-13T23:22:03.804Z,0.20
2022-08-13T23:24:33.455Z,0.20
2022-08-13T23:27:03.235Z,0.20
2022-08-13T23:29:31.998Z,0.10
2022-08-13T23:32:00.813Z,0.10
2022-08-13T23:34:30.042Z,0.10
2022-08-13T23:36:59.330Z,0.10
2022-08-13T23:39:30.254Z,0.10
2022-08-13T23:41:59.404Z,0.20
2022-08-13T23:44:38.344Z,0.10
2022-08-13T23:47:10.266Z,0.20
2022-08-13T23:49:42.862Z,0.20
2022-08-13T23:52:17.214Z,0.10
2022-08-13T23:54:52.925Z,0.20
2022-08-13T23:57:27.791Z,0.10
2022-08-13T23:59:58.252Z,0.20
